sensor_id;sensor_type;location;lat;lon;timestamp;P1;durP1;ratioP1;P2;durP2;ratioP2
66802;SDS011;53705;49.860;8.744;2023-08-12T00:00:03;3.10;;;2.03;;
66802;SDS011;53705;49.860;8.744;2023-08-12T00:02:40;3.42;;;1.88;;
66802;SDS011;53705;49.860;8.744;2023-08-12T00:05:08;3.13;;;2.13;;
66802;SDS011;53705;49.860;8.744;2023-08-12T00:07:38;3.05;;;1.92;;
66802;SDS011;53705;49.860;8.744;2023-08-12T00:10:08;3.00;;;1.80;;
66802;SDS011;53705;49.860;8.744;2023-08-12T00:12:36;3.30;;;1.40;;
66802;SDS011;53705;49.860;8.744;2023-08-12T00:15:04;2.90;;;1.83;;
66802;SDS011;53705;49.860;8.744;2023-08-12T00:17:34;3.40;;;1.73;;
66802;SDS011;53705;49.860;8.744;2023-08-12T00:20:04;3.13;;;1.50;;
66802;SDS011;53705;49.860;8.744;2023-08-12T00:22:33;2.63;;;1.42;;
66802;SDS011;53705;49.860;8.744;2023-08-12T00:25:03;2.60;;;1.48;;
66802;SDS011;53705;49.860;8.744;2023-08-12T00:27:30;2.53;;;0.85;;
66802;SDS011;53705;49.860;8.744;2023-08-12T00:29:58;2.90;;;2.03;;
66802;SDS011;53705;49.860;8.744;2023-08-12T00:32:26;2.80;;;1.35;;
66802;SDS011;53705;49.860;8.744;2023-08-12T00:34:54;2.38;;;0.75;;
66802;SDS011;53705;49.860;8.744;2023-08-12T00:37:22;3.67;;;2.00;;
66802;SDS011;53705;49.860;8.744;2023-08-12T00:39:50;3.15;;;2.08;;
66802;SDS011;53705;49.860;8.744;2023-08-12T00:42:19;3.28;;;1.77;;
66802;SDS011;53705;49.860;8.744;2023-08-12T00:44:46;3.03;;;1.98;;
66802;SDS011;53705;49.860;8.744;2023-08-12T00:47:14;3.05;;;1.95;;
66802;SDS011;53705;49.860;8.744;2023-08-12T00:49:42;2.47;;;1.30;;
66802;SDS011;53705;49.860;8.744;2023-08-12T00:52:11;2.80;;;1.10;;
66802;SDS011;53705;49.860;8.744;2023-08-12T00:54:39;4.43;;;1.73;;
66802;SDS011;53705;49.860;8.744;2023-08-12T00:57:07;2.63;;;1.40;;
66802;SDS011;53705;49.860;8.744;2023-08-12T00:59:37;4.30;;;1.98;;
66802;SDS011;53705;49.860;8.744;2023-08-12T01:02:07;4.25;;;2.22;;
66802;SDS011;53705;49.860;8.744;2023-08-12T01:04:35;2.97;;;0.80;;
66802;SDS011;53705;49.860;8.744;2023-08-12T01:07:03;4.70;;;2.10;;
66802;SDS011;53705;49.860;8.744;2023-08-12T01:09:31;3.47;;;2.47;;
66802;SDS011;53705;49.860;8.744;2023-08-12T01:12:01;3.90;;;1.17;;
66802;SDS011;53705;49.860;8.744;2023-08-12T01:14:33;5.03;;;2.03;;
66802;SDS011;53705;49.860;8.744;2023-08-12T01:17:05;3.55;;;1.60;;
66802;SDS011;53705;49.860;8.744;2023-08-12T01:19:35;4.97;;;2.05;;
66802;SDS011;53705;49.860;8.744;2023-08-12T01:22:06;5.70;;;1.95;;
66802;SDS011;53705;49.860;8.744;2023-08-12T01:24:35;4.28;;;1.38;;
66802;SDS011;53705;49.860;8.744;2023-08-12T01:27:04;4.90;;;4.40;;
66802;SDS011;53705;49.860;8.744;2023-08-12T01:29:32;3.45;;;2.42;;
66802;SDS011;53705;49.860;8.744;2023-08-12T01:32:02;5.05;;;2.20;;
66802;SDS011;53705;49.860;8.744;2023-08-12T01:34:36;4.30;;;2.80;;
66802;SDS011;53705;49.860;8.744;2023-08-12T01:37:05;3.65;;;2.10;;
66802;SDS011;53705;49.860;8.744;2023-08-12T01:39:35;4.22;;;2.53;;
66802;SDS011;53705;49.860;8.744;2023-08-12T01:42:04;4.20;;;2.45;;
66802;SDS011;53705;49.860;8.744;2023-08-12T01:44:32;5.43;;;2.35;;
66802;SDS011;53705;49.860;8.744;2023-08-12T01:47:00;4.70;;;2.95;;
66802;SDS011;53705;49.860;8.744;2023-08-12T01:49:27;3.45;;;1.55;;
66802;SDS011;53705;49.860;8.744;2023-08-12T01:51:55;3.45;;;2.05;;
66802;SDS011;53705;49.860;8.744;2023-08-12T01:54:23;3.70;;;2.40;;
66802;SDS011;53705;49.860;8.744;2023-08-12T01:56:52;3.45;;;1.95;;
66802;SDS011;53705;49.860;8.744;2023-08-12T01:59:20;4.53;;;2.03;;
66802;SDS011;53705;49.860;8.744;2023-08-12T02:01:47;2.90;;;1.88;;
66802;SDS011;53705;49.860;8.744;2023-08-12T02:04:15;4.35;;;2.95;;
66802;SDS011;53705;49.860;8.744;2023-08-12T02:06:43;2.92;;;1.75;;
66802;SDS011;53705;49.860;8.744;2023-08-12T02:09:11;2.72;;;1.70;;
66802;SDS011;53705;49.860;8.744;2023-08-12T02:11:38;2.72;;;1.30;;
66802;SDS011;53705;49.860;8.744;2023-08-12T02:14:07;3.83;;;1.83;;
66802;SDS011;53705;49.860;8.744;2023-08-12T02:16:35;3.92;;;2.75;;
66802;SDS011;53705;49.860;8.744;2023-08-12T02:19:03;4.60;;;2.15;;
66802;SDS011;53705;49.860;8.744;2023-08-12T02:21:31;5.75;;;2.05;;
66802;SDS011;53705;49.860;8.744;2023-08-12T02:23:59;3.20;;;1.83;;
66802;SDS011;53705;49.860;8.744;2023-08-12T02:26:27;3.67;;;2.60;;
66802;SDS011;53705;49.860;8.744;2023-08-12T02:28:54;2.22;;;0.88;;
66802;SDS011;53705;49.860;8.744;2023-08-12T02:31:23;4.18;;;2.22;;
66802;SDS011;53705;49.860;8.744;2023-08-12T02:33:53;2.83;;;1.58;;
66802;SDS011;53705;49.860;8.744;2023-08-12T02:36:20;3.28;;;2.00;;
66802;SDS011;53705;49.860;8.744;2023-08-12T02:38:48;3.13;;;1.88;;
66802;SDS011;53705;49.860;8.744;2023-08-12T02:41:16;4.18;;;2.38;;
66802;SDS011;53705;49.860;8.744;2023-08-12T02:43:45;4.18;;;2.22;;
66802;SDS011;53705;49.860;8.744;2023-08-12T02:46:12;5.70;;;2.38;;
66802;SDS011;53705;49.860;8.744;2023-08-12T02:48:43;7.63;;;3.13;;
66802;SDS011;53705;49.860;8.744;2023-08-12T02:51:11;4.05;;;2.58;;
66802;SDS011;53705;49.860;8.744;2023-08-12T02:53:38;4.10;;;3.15;;
66802;SDS011;53705;49.860;8.744;2023-08-12T02:56:06;4.25;;;2.80;;
66802;SDS011;53705;49.860;8.744;2023-08-12T02:58:34;4.45;;;3.13;;
66802;SDS011;53705;49.860;8.744;2023-08-12T03:01:01;4.50;;;3.03;;
66802;SDS011;53705;49.860;8.744;2023-08-12T03:03:30;5.15;;;2.83;;
66802;SDS011;53705;49.860;8.744;2023-08-12T03:06:00;4.03;;;2.75;;
66802;SDS011;53705;49.860;8.744;2023-08-12T03:08:29;4.68;;;2.58;;
66802;SDS011;53705;49.860;8.744;2023-08-12T03:11:00;4.85;;;3.25;;
66802;SDS011;53705;49.860;8.744;2023-08-12T03:13:29;7.75;;;3.70;;
66802;SDS011;53705;49.860;8.744;2023-08-12T03:15:57;4.60;;;2.13;;
66802;SDS011;53705;49.860;8.744;2023-08-12T03:18:25;5.72;;;2.58;;
66802;SDS011;53705;49.860;8.744;2023-08-12T03:20:53;5.32;;;2.03;;
66802;SDS011;53705;49.860;8.744;2023-08-12T03:23:24;3.80;;;2.63;;
66802;SDS011;53705;49.860;8.744;2023-08-12T03:25:53;4.20;;;2.55;;
66802;SDS011;53705;49.860;8.744;2023-08-12T03:28:21;5.45;;;4.80;;
66802;SDS011;53705;49.860;8.744;2023-08-12T03:30:50;6.18;;;2.50;;
66802;SDS011;53705;49.860;8.744;2023-08-12T03:33:19;5.80;;;4.18;;
66802;SDS011;53705;49.860;8.744;2023-08-12T03:35:48;5.40;;;2.90;;
66802;SDS011;53705;49.860;8.744;2023-08-12T03:38:17;6.03;;;3.78;;
66802;SDS011;53705;49.860;8.744;2023-08-12T03:40:46;8.93;;;4.65;;
66802;SDS011;53705;49.860;8.744;2023-08-12T03:43:17;5.88;;;4.15;;
66802;SDS011;53705;49.860;8.744;2023-08-12T03:45:46;8.45;;;4.15;;
66802;SDS011;53705;49.860;8.744;2023-08-12T03:48:17;6.75;;;4.10;;
66802;SDS011;53705;49.860;8.744;2023-08-12T03:50:45;7.00;;;4.45;;
66802;SDS011;53705;49.860;8.744;2023-08-12T03:53:14;6.50;;;4.30;;
66802;SDS011;53705;49.860;8.744;2023-08-12T03:55:42;6.80;;;4.60;;
66802;SDS011;53705;49.860;8.744;2023-08-12T03:58:13;6.55;;;4.70;;
66802;SDS011;53705;49.860;8.744;2023-08-12T04:00:41;7.03;;;4.32;;
66802;SDS011;53705;49.860;8.744;2023-08-12T04:03:12;8.48;;;4.53;;
66802;SDS011;53705;49.860;8.744;2023-08-12T04:05:46;7.32;;;4.38;;
66802;SDS011;53705;49.860;8.744;2023-08-12T04:08:14;6.63;;;3.63;;
66802;SDS011;53705;49.860;8.744;2023-08-12T04:10:44;8.50;;;3.90;;
66802;SDS011;53705;49.860;8.744;2023-08-12T04:13:13;8.95;;;4.82;;
66802;SDS011;53705;49.860;8.744;2023-08-12T04:15:41;6.82;;;4.40;;
66802;SDS011;53705;49.860;8.744;2023-08-12T04:18:09;8.43;;;4.65;;
66802;SDS011;53705;49.860;8.744;2023-08-12T04:20:37;5.70;;;3.90;;
66802;SDS011;53705;49.860;8.744;2023-08-12T04:23:04;6.90;;;4.13;;
66802;SDS011;53705;49.860;8.744;2023-08-12T04:25:32;7.07;;;4.57;;
66802;SDS011;53705;49.860;8.744;2023-08-12T04:28:00;9.48;;;4.60;;
66802;SDS011;53705;49.860;8.744;2023-08-12T04:30:30;7.68;;;4.03;;
66802;SDS011;53705;49.860;8.744;2023-08-12T04:32:58;9.73;;;4.32;;
66802;SDS011;53705;49.860;8.744;2023-08-12T04:35:30;7.18;;;3.63;;
66802;SDS011;53705;49.860;8.744;2023-08-12T04:37:59;6.50;;;4.57;;
66802;SDS011;53705;49.860;8.744;2023-08-12T04:40:27;6.40;;;4.40;;
66802;SDS011;53705;49.860;8.744;2023-08-12T04:42:55;7.30;;;4.10;;
66802;SDS011;53705;49.860;8.744;2023-08-12T04:45:23;5.95;;;4.35;;
66802;SDS011;53705;49.860;8.744;2023-08-12T04:47:53;7.80;;;4.95;;
66802;SDS011;53705;49.860;8.744;2023-08-12T04:50:21;11.98;;;4.50;;
66802;SDS011;53705;49.860;8.744;2023-08-12T04:52:49;6.63;;;3.85;;
66802;SDS011;53705;49.860;8.744;2023-08-12T04:55:18;5.47;;;3.15;;
66802;SDS011;53705;49.860;8.744;2023-08-12T04:57:46;8.00;;;4.15;;
66802;SDS011;53705;49.860;8.744;2023-08-12T05:00:14;8.05;;;4.10;;
66802;SDS011;53705;49.860;8.744;2023-08-12T05:02:43;6.20;;;4.57;;
66802;SDS011;53705;49.860;8.744;2023-08-12T05:05:13;6.78;;;3.83;;
66802;SDS011;53705;49.860;8.744;2023-08-12T05:07:41;6.30;;;4.00;;
66802;SDS011;53705;49.860;8.744;2023-08-12T05:10:09;7.85;;;4.50;;
66802;SDS011;53705;49.860;8.744;2023-08-12T05:12:36;7.90;;;4.80;;
66802;SDS011;53705;49.860;8.744;2023-08-12T05:15:04;6.60;;;3.40;;
66802;SDS011;53705;49.860;8.744;2023-08-12T05:17:32;8.00;;;4.03;;
66802;SDS011;53705;49.860;8.744;2023-08-12T05:20:00;6.25;;;3.55;;
66802;SDS011;53705;49.860;8.744;2023-08-12T05:22:29;7.63;;;4.80;;
66802;SDS011;53705;49.860;8.744;2023-08-12T05:24:57;8.35;;;5.72;;
66802;SDS011;53705;49.860;8.744;2023-08-12T05:27:25;9.02;;;4.78;;
66802;SDS011;53705;49.860;8.744;2023-08-12T05:29:52;6.70;;;4.43;;
66802;SDS011;53705;49.860;8.744;2023-08-12T05:32:20;6.72;;;4.35;;
66802;SDS011;53705;49.860;8.744;2023-08-12T05:34:49;6.03;;;3.42;;
66802;SDS011;53705;49.860;8.744;2023-08-12T05:37:17;5.05;;;2.47;;
66802;SDS011;53705;49.860;8.744;2023-08-12T05:39:46;6.32;;;4.53;;
66802;SDS011;53705;49.860;8.744;2023-08-12T05:42:13;5.82;;;2.50;;
66802;SDS011;53705;49.860;8.744;2023-08-12T05:44:41;5.35;;;3.40;;
66802;SDS011;53705;49.860;8.744;2023-08-12T05:47:09;7.15;;;3.35;;
66802;SDS011;53705;49.860;8.744;2023-08-12T05:49:37;6.03;;;3.85;;
66802;SDS011;53705;49.860;8.744;2023-08-12T05:52:04;8.13;;;4.07;;
66802;SDS011;53705;49.860;8.744;2023-08-12T05:54:32;6.57;;;4.43;;
66802;SDS011;53705;49.860;8.744;2023-08-12T05:57:01;5.70;;;3.78;;
66802;SDS011;53705;49.860;8.744;2023-08-12T05:59:29;6.13;;;3.83;;
66802;SDS011;53705;49.860;8.744;2023-08-12T06:01:57;5.43;;;2.63;;
66802;SDS011;53705;49.860;8.744;2023-08-12T06:04:25;4.93;;;2.63;;
66802;SDS011;53705;49.860;8.744;2023-08-12T06:06:53;7.50;;;3.70;;
66802;SDS011;53705;49.860;8.744;2023-08-12T06:09:21;5.65;;;4.35;;
66802;SDS011;53705;49.860;8.744;2023-08-12T06:11:48;5.53;;;3.67;;
66802;SDS011;53705;49.860;8.744;2023-08-12T06:14:18;5.00;;;3.50;;
66802;SDS011;53705;49.860;8.744;2023-08-12T06:16:45;3.78;;;2.63;;
66802;SDS011;53705;49.860;8.744;2023-08-12T06:19:13;4.47;;;2.63;;
66802;SDS011;53705;49.860;8.744;2023-08-12T06:21:41;9.18;;;3.30;;
66802;SDS011;53705;49.860;8.744;2023-08-12T06:24:08;4.90;;;2.58;;
66802;SDS011;53705;49.860;8.744;2023-08-12T06:26:36;5.97;;;3.40;;
66802;SDS011;53705;49.860;8.744;2023-08-12T06:29:04;6.60;;;4.28;;
66802;SDS011;53705;49.860;8.744;2023-08-12T06:31:33;5.90;;;3.13;;
66802;SDS011;53705;49.860;8.744;2023-08-12T06:34:01;7.30;;;4.82;;
66802;SDS011;53705;49.860;8.744;2023-08-12T06:36:29;4.75;;;3.30;;
66802;SDS011;53705;49.860;8.744;2023-08-12T06:38:56;6.25;;;3.05;;
66802;SDS011;53705;49.860;8.744;2023-08-12T06:41:24;5.35;;;3.58;;
66802;SDS011;53705;49.860;8.744;2023-08-12T06:43:52;6.53;;;3.50;;
66802;SDS011;53705;49.860;8.744;2023-08-12T06:46:19;7.50;;;3.53;;
66802;SDS011;53705;49.860;8.744;2023-08-12T06:48:49;6.50;;;4.75;;
66802;SDS011;53705;49.860;8.744;2023-08-12T06:51:16;6.53;;;4.00;;
66802;SDS011;53705;49.860;8.744;2023-08-12T06:53:44;5.95;;;4.10;;
66802;SDS011;53705;49.860;8.744;2023-08-12T06:56:12;6.72;;;4.10;;
66802;SDS011;53705;49.860;8.744;2023-08-12T06:58:39;7.25;;;4.28;;
66802;SDS011;53705;49.860;8.744;2023-08-12T07:01:07;4.95;;;3.22;;
66802;SDS011;53705;49.860;8.744;2023-08-12T07:03:36;5.78;;;3.70;;
66802;SDS011;53705;49.860;8.744;2023-08-12T07:06:05;5.03;;;3.42;;
66802;SDS011;53705;49.860;8.744;2023-08-12T07:08:33;5.03;;;2.92;;
66802;SDS011;53705;49.860;8.744;2023-08-12T07:11:00;5.15;;;3.15;;
66802;SDS011;53705;49.860;8.744;2023-08-12T07:13:28;5.07;;;4.00;;
66802;SDS011;53705;49.860;8.744;2023-08-12T07:15:56;5.22;;;2.97;;
66802;SDS011;53705;49.860;8.744;2023-08-12T07:18:24;4.53;;;3.13;;
66802;SDS011;53705;49.860;8.744;2023-08-12T07:20:51;4.82;;;3.28;;
66802;SDS011;53705;49.860;8.744;2023-08-12T07:23:20;5.05;;;4.25;;
66802;SDS011;53705;49.860;8.744;2023-08-12T07:25:48;7.45;;;3.00;;
66802;SDS011;53705;49.860;8.744;2023-08-12T07:28:16;4.60;;;2.92;;
66802;SDS011;53705;49.860;8.744;2023-08-12T07:30:43;4.70;;;2.97;;
66802;SDS011;53705;49.860;8.744;2023-08-12T07:33:11;5.38;;;3.50;;
66802;SDS011;53705;49.860;8.744;2023-08-12T07:35:39;5.65;;;3.45;;
66802;SDS011;53705;49.860;8.744;2023-08-12T07:38:07;4.03;;;2.25;;
66802;SDS011;53705;49.860;8.744;2023-08-12T07:40:36;4.13;;;2.65;;
66802;SDS011;53705;49.860;8.744;2023-08-12T07:43:07;4.13;;;2.75;;
66802;SDS011;53705;49.860;8.744;2023-08-12T07:45:35;4.35;;;3.13;;
66802;SDS011;53705;49.860;8.744;2023-08-12T07:48:03;5.25;;;3.47;;
66802;SDS011;53705;49.860;8.744;2023-08-12T07:50:31;4.85;;;2.75;;
66802;SDS011;53705;49.860;8.744;2023-08-12T07:52:58;4.30;;;2.00;;
66802;SDS011;53705;49.860;8.744;2023-08-12T07:55:26;5.32;;;3.28;;
66802;SDS011;53705;49.860;8.744;2023-08-12T07:57:56;4.03;;;2.83;;
66802;SDS011;53705;49.860;8.744;2023-08-12T08:00:23;3.95;;;2.63;;
66802;SDS011;53705;49.860;8.744;2023-08-12T08:02:51;4.28;;;2.30;;
66802;SDS011;53705;49.860;8.744;2023-08-12T08:05:19;5.97;;;2.83;;
66802;SDS011;53705;49.860;8.744;2023-08-12T08:07:47;4.47;;;2.08;;
66802;SDS011;53705;49.860;8.744;2023-08-12T08:10:15;4.88;;;2.03;;
66802;SDS011;53705;49.860;8.744;2023-08-12T08:12:42;3.97;;;3.10;;
66802;SDS011;53705;49.860;8.744;2023-08-12T08:15:12;4.40;;;3.08;;
66802;SDS011;53705;49.860;8.744;2023-08-12T08:17:40;3.45;;;2.30;;
66802;SDS011;53705;49.860;8.744;2023-08-12T08:20:08;3.70;;;2.22;;
66802;SDS011;53705;49.860;8.744;2023-08-12T08:22:37;4.70;;;3.28;;
66802;SDS011;53705;49.860;8.744;2023-08-12T08:25:06;4.35;;;3.08;;
66802;SDS011;53705;49.860;8.744;2023-08-12T08:27:34;5.55;;;3.25;;
66802;SDS011;53705;49.860;8.744;2023-08-12T08:30:02;6.05;;;3.25;;
66802;SDS011;53705;49.860;8.744;2023-08-12T08:32:31;4.50;;;3.13;;
66802;SDS011;53705;49.860;8.744;2023-08-12T08:34:59;5.13;;;3.30;;
66802;SDS011;53705;49.860;8.744;2023-08-12T08:37:27;4.35;;;2.47;;
66802;SDS011;53705;49.860;8.744;2023-08-12T08:39:54;4.45;;;1.90;;
66802;SDS011;53705;49.860;8.744;2023-08-12T08:42:22;3.67;;;2.25;;
66802;SDS011;53705;49.860;8.744;2023-08-12T08:44:51;4.53;;;2.50;;
66802;SDS011;53705;49.860;8.744;2023-08-12T08:47:19;3.90;;;2.47;;
66802;SDS011;53705;49.860;8.744;2023-08-12T08:49:52;4.07;;;2.33;;
66802;SDS011;53705;49.860;8.744;2023-08-12T08:52:22;3.90;;;1.95;;
66802;SDS011;53705;49.860;8.744;2023-08-12T08:54:50;5.53;;;3.10;;
66802;SDS011;53705;49.860;8.744;2023-08-12T08:57:19;4.63;;;3.10;;
66802;SDS011;53705;49.860;8.744;2023-08-12T08:59:53;3.83;;;3.28;;
66802;SDS011;53705;49.860;8.744;2023-08-12T09:02:24;5.70;;;3.13;;
66802;SDS011;53705;49.860;8.744;2023-08-12T09:04:53;4.47;;;2.63;;
66802;SDS011;53705;49.860;8.744;2023-08-12T09:07:22;3.13;;;2.35;;
66802;SDS011;53705;49.860;8.744;2023-08-12T09:09:50;4.90;;;2.78;;
66802;SDS011;53705;49.860;8.744;2023-08-12T09:12:18;3.35;;;1.60;;
66802;SDS011;53705;49.860;8.744;2023-08-12T09:14:47;4.32;;;3.03;;
66802;SDS011;53705;49.860;8.744;2023-08-12T09:17:15;3.85;;;2.00;;
66802;SDS011;53705;49.860;8.744;2023-08-12T09:19:43;6.28;;;3.67;;
66802;SDS011;53705;49.860;8.744;2023-08-12T09:22:12;4.13;;;2.67;;
66802;SDS011;53705;49.860;8.744;2023-08-12T09:24:41;5.05;;;3.25;;
66802;SDS011;53705;49.860;8.744;2023-08-12T09:27:09;4.38;;;2.92;;
66802;SDS011;53705;49.860;8.744;2023-08-12T09:29:38;3.78;;;2.30;;
66802;SDS011;53705;49.860;8.744;2023-08-12T09:32:07;3.70;;;2.65;;
66802;SDS011;53705;49.860;8.744;2023-08-12T09:34:37;5.35;;;3.35;;
66802;SDS011;53705;49.860;8.744;2023-08-12T09:37:05;4.82;;;2.85;;
66802;SDS011;53705;49.860;8.744;2023-08-12T09:39:35;4.60;;;2.88;;
66802;SDS011;53705;49.860;8.744;2023-08-12T09:42:03;4.45;;;3.53;;
66802;SDS011;53705;49.860;8.744;2023-08-12T09:44:34;4.85;;;2.92;;
66802;SDS011;53705;49.860;8.744;2023-08-12T09:47:02;4.07;;;2.65;;
66802;SDS011;53705;49.860;8.744;2023-08-12T09:49:29;4.15;;;2.47;;
66802;SDS011;53705;49.860;8.744;2023-08-12T09:51:57;4.68;;;2.42;;
66802;SDS011;53705;49.860;8.744;2023-08-12T09:54:31;4.35;;;2.72;;
66802;SDS011;53705;49.860;8.744;2023-08-12T09:57:01;4.00;;;1.45;;
66802;SDS011;53705;49.860;8.744;2023-08-12T09:59:30;3.53;;;2.20;;
66802;SDS011;53705;49.860;8.744;2023-08-12T10:01:58;5.95;;;3.00;;
66802;SDS011;53705;49.860;8.744;2023-08-12T10:04:32;3.85;;;1.88;;
66802;SDS011;53705;49.860;8.744;2023-08-12T10:07:01;4.43;;;2.65;;
66802;SDS011;53705;49.860;8.744;2023-08-12T10:09:30;4.38;;;2.55;;
66802;SDS011;53705;49.860;8.744;2023-08-12T10:12:00;4.57;;;2.78;;
66802;SDS011;53705;49.860;8.744;2023-08-12T10:14:29;6.70;;;3.30;;
66802;SDS011;53705;49.860;8.744;2023-08-12T10:16:57;4.38;;;3.25;;
66802;SDS011;53705;49.860;8.744;2023-08-12T10:19:32;3.80;;;1.60;;
66802;SDS011;53705;49.860;8.744;2023-08-12T10:22:00;4.30;;;2.72;;
66802;SDS011;53705;49.860;8.744;2023-08-12T10:24:30;3.42;;;1.65;;
66802;SDS011;53705;49.860;8.744;2023-08-12T10:26:59;4.68;;;2.38;;
66802;SDS011;53705;49.860;8.744;2023-08-12T10:29:29;3.80;;;2.42;;
66802;SDS011;53705;49.860;8.744;2023-08-12T10:31:58;5.22;;;3.03;;
66802;SDS011;53705;49.860;8.744;2023-08-12T10:34:27;7.00;;;4.13;;
66802;SDS011;53705;49.860;8.744;2023-08-12T10:36:55;5.95;;;2.70;;
66802;SDS011;53705;49.860;8.744;2023-08-12T10:39:30;6.95;;;3.65;;
66802;SDS011;53705;49.860;8.744;2023-08-12T10:41:59;6.65;;;3.72;;
66802;SDS011;53705;49.860;8.744;2023-08-12T10:44:38;6.97;;;4.82;;
66802;SDS011;53705;49.860;8.744;2023-08-12T10:49:37;6.35;;;3.83;;
66802;SDS011;53705;49.860;8.744;2023-08-12T10:52:05;7.07;;;3.75;;
66802;SDS011;53705;49.860;8.744;2023-08-12T10:54:33;9.15;;;5.28;;
66802;SDS011;53705;49.860;8.744;2023-08-12T10:57:04;9.77;;;5.68;;
66802;SDS011;53705;49.860;8.744;2023-08-12T10:59:48;8.10;;;5.10;;
66802;SDS011;53705;49.860;8.744;2023-08-12T11:02:17;8.40;;;5.00;;
66802;SDS011;53705;49.860;8.744;2023-08-12T11:04:47;8.90;;;4.20;;
66802;SDS011;53705;49.860;8.744;2023-08-12T11:07:16;10.02;;;6.45;;
66802;SDS011;53705;49.860;8.744;2023-08-12T11:09:44;9.43;;;5.75;;
66802;SDS011;53705;49.860;8.744;2023-08-12T11:12:16;10.00;;;6.25;;
66802;SDS011;53705;49.860;8.744;2023-08-12T11:14:49;8.40;;;5.53;;
66802;SDS011;53705;49.860;8.744;2023-08-12T11:17:20;9.30;;;6.15;;
66802;SDS011;53705;49.860;8.744;2023-08-12T11:19:54;7.07;;;3.28;;
66802;SDS011;53705;49.860;8.744;2023-08-12T11:22:22;6.82;;;3.13;;
66802;SDS011;53705;49.860;8.744;2023-08-12T11:24:50;4.95;;;3.15;;
66802;SDS011;53705;49.860;8.744;2023-08-12T11:27:18;4.90;;;3.33;;
66802;SDS011;53705;49.860;8.744;2023-08-12T11:29:46;5.03;;;3.53;;
66802;SDS011;53705;49.860;8.744;2023-08-12T11:32:15;4.30;;;2.53;;
66802;SDS011;53705;49.860;8.744;2023-08-12T11:34:43;4.28;;;3.17;;
66802;SDS011;53705;49.860;8.744;2023-08-12T11:37:10;3.58;;;1.27;;
66802;SDS011;53705;49.860;8.744;2023-08-12T11:39:38;3.97;;;2.38;;
66802;SDS011;53705;49.860;8.744;2023-08-12T11:42:06;5.25;;;3.58;;
66802;SDS011;53705;49.860;8.744;2023-08-12T11:44:34;5.10;;;3.42;;
66802;SDS011;53705;49.860;8.744;2023-08-12T11:47:02;6.18;;;2.40;;
66802;SDS011;53705;49.860;8.744;2023-08-12T11:49:31;7.53;;;3.38;;
66802;SDS011;53705;49.860;8.744;2023-08-12T11:51:58;5.03;;;2.72;;
66802;SDS011;53705;49.860;8.744;2023-08-12T11:54:27;4.72;;;1.88;;
66802;SDS011;53705;49.860;8.744;2023-08-12T11:56:55;6.22;;;3.28;;
66802;SDS011;53705;49.860;8.744;2023-08-12T11:59:24;7.00;;;3.80;;
66802;SDS011;53705;49.860;8.744;2023-08-12T12:01:54;6.32;;;4.47;;
66802;SDS011;53705;49.860;8.744;2023-08-12T12:04:22;7.05;;;2.97;;
66802;SDS011;53705;49.860;8.744;2023-08-12T12:06:51;5.63;;;3.42;;
66802;SDS011;53705;49.860;8.744;2023-08-12T12:09:19;6.32;;;3.88;;
66802;SDS011;53705;49.860;8.744;2023-08-12T12:11:51;6.90;;;3.70;;
66802;SDS011;53705;49.860;8.744;2023-08-12T12:14:20;5.90;;;3.42;;
66802;SDS011;53705;49.860;8.744;2023-08-12T12:16:48;5.32;;;2.78;;
66802;SDS011;53705;49.860;8.744;2023-08-12T12:19:18;3.33;;;1.40;;
66802;SDS011;53705;49.860;8.744;2023-08-12T12:21:46;4.78;;;2.22;;
66802;SDS011;53705;49.860;8.744;2023-08-12T12:24:16;3.85;;;2.00;;
66802;SDS011;53705;49.860;8.744;2023-08-12T12:26:45;3.70;;;2.10;;
66802;SDS011;53705;49.860;8.744;2023-08-12T12:29:13;4.35;;;2.13;;
66802;SDS011;53705;49.860;8.744;2023-08-12T12:31:41;5.50;;;3.22;;
66802;SDS011;53705;49.860;8.744;2023-08-12T12:34:09;4.15;;;1.85;;
66802;SDS011;53705;49.860;8.744;2023-08-12T12:36:37;4.65;;;2.50;;
66802;SDS011;53705;49.860;8.744;2023-08-12T12:39:06;5.97;;;3.08;;
66802;SDS011;53705;49.860;8.744;2023-08-12T12:41:36;4.32;;;2.90;;
66802;SDS011;53705;49.860;8.744;2023-08-12T12:44:04;4.65;;;2.55;;
66802;SDS011;53705;49.860;8.744;2023-08-12T12:46:32;4.50;;;2.40;;
66802;SDS011;53705;49.860;8.744;2023-08-12T12:48:59;3.67;;;2.20;;
66802;SDS011;53705;49.860;8.744;2023-08-12T12:51:27;4.30;;;3.22;;
66802;SDS011;53705;49.860;8.744;2023-08-12T12:53:55;3.65;;;1.42;;
66802;SDS011;53705;49.860;8.744;2023-08-12T12:56:23;3.60;;;2.03;;
66802;SDS011;53705;49.860;8.744;2023-08-12T12:58:52;3.08;;;1.83;;
66802;SDS011;53705;49.860;8.744;2023-08-12T13:01:20;2.92;;;1.73;;
66802;SDS011;53705;49.860;8.744;2023-08-12T13:03:47;2.75;;;1.52;;
66802;SDS011;53705;49.860;8.744;2023-08-12T13:06:15;2.63;;;1.33;;
66802;SDS011;53705;49.860;8.744;2023-08-12T13:08:43;2.45;;;1.35;;
66802;SDS011;53705;49.860;8.744;2023-08-12T13:11:10;2.63;;;1.33;;
66802;SDS011;53705;49.860;8.744;2023-08-12T13:13:38;2.40;;;1.00;;
66802;SDS011;53705;49.860;8.744;2023-08-12T13:16:07;3.08;;;1.45;;
66802;SDS011;53705;49.860;8.744;2023-08-12T13:18:35;1.98;;;1.10;;
66802;SDS011;53705;49.860;8.744;2023-08-12T13:21:03;1.90;;;0.95;;
66802;SDS011;53705;49.860;8.744;2023-08-12T13:23:31;1.88;;;0.40;;
66802;SDS011;53705;49.860;8.744;2023-08-12T13:25:59;2.08;;;1.25;;
66802;SDS011;53705;49.860;8.744;2023-08-12T13:28:27;1.85;;;1.00;;
66802;SDS011;53705;49.860;8.744;2023-08-12T13:30:56;1.77;;;1.15;;
66802;SDS011;53705;49.860;8.744;2023-08-12T13:33:25;2.88;;;1.17;;
66802;SDS011;53705;49.860;8.744;2023-08-12T13:35:53;3.53;;;2.05;;
66802;SDS011;53705;49.860;8.744;2023-08-12T13:38:21;1.92;;;1.02;;
66802;SDS011;53705;49.860;8.744;2023-08-12T13:40:48;1.83;;;1.08;;
66802;SDS011;53705;49.860;8.744;2023-08-12T13:43:16;2.33;;;1.58;;
66802;SDS011;53705;49.860;8.744;2023-08-12T13:45:44;2.05;;;1.40;;
66802;SDS011;53705;49.860;8.744;2023-08-12T13:48:12;2.78;;;1.55;;
66802;SDS011;53705;49.860;8.744;2023-08-12T13:50:41;2.35;;;1.10;;
66802;SDS011;53705;49.860;8.744;2023-08-12T13:53:09;1.95;;;1.42;;
66802;SDS011;53705;49.860;8.744;2023-08-12T13:55:37;2.65;;;1.20;;
66802;SDS011;53705;49.860;8.744;2023-08-12T13:58:04;2.17;;;1.08;;
66802;SDS011;53705;49.860;8.744;2023-08-12T14:00:32;2.25;;;1.95;;
66802;SDS011;53705;49.860;8.744;2023-08-12T14:03:00;2.83;;;1.10;;
66802;SDS011;53705;49.860;8.744;2023-08-12T14:05:27;2.22;;;1.38;;
66802;SDS011;53705;49.860;8.744;2023-08-12T14:07:57;3.38;;;0.47;;
66802;SDS011;53705;49.860;8.744;2023-08-12T14:10:25;1.98;;;0.93;;
66802;SDS011;53705;49.860;8.744;2023-08-12T14:12:53;2.13;;;1.85;;
66802;SDS011;53705;49.860;8.744;2023-08-12T14:15:20;1.90;;;1.05;;
66802;SDS011;53705;49.860;8.744;2023-08-12T14:17:48;2.35;;;1.27;;
66802;SDS011;53705;49.860;8.744;2023-08-12T14:20:16;2.08;;;1.15;;
66802;SDS011;53705;49.860;8.744;2023-08-12T14:22:44;1.48;;;0.82;;
66802;SDS011;53705;49.860;8.744;2023-08-12T14:25:13;1.70;;;1.00;;
66802;SDS011;53705;49.860;8.744;2023-08-12T14:27:41;2.03;;;1.30;;
66802;SDS011;53705;49.860;8.744;2023-08-12T14:30:10;1.67;;;0.85;;
66802;SDS011;53705;49.860;8.744;2023-08-12T14:32:40;1.80;;;1.08;;
66802;SDS011;53705;49.860;8.744;2023-08-12T14:35:08;1.70;;;0.82;;
66802;SDS011;53705;49.860;8.744;2023-08-12T14:37:36;2.40;;;1.10;;
66802;SDS011;53705;49.860;8.744;2023-08-12T14:40:04;1.50;;;0.77;;
66802;SDS011;53705;49.860;8.744;2023-08-12T14:42:34;1.73;;;0.98;;
66802;SDS011;53705;49.860;8.744;2023-08-12T14:45:20;1.45;;;0.93;;
66802;SDS011;53705;49.860;8.744;2023-08-12T14:47:48;1.92;;;0.90;;
66802;SDS011;53705;49.860;8.744;2023-08-12T14:50:35;1.52;;;0.82;;
66802;SDS011;53705;49.860;8.744;2023-08-12T14:53:04;1.50;;;0.88;;
66802;SDS011;53705;49.860;8.744;2023-08-12T14:55:32;1.85;;;1.05;;
66802;SDS011;53705;49.860;8.744;2023-08-12T14:58:02;1.75;;;0.98;;